KMLI/MLI METAR and TAF weather

Enter ICAO airport designator
Station Type Date Time Source
KMLI METAR 2020/07/04 08:52 UTC NOAA

KMLI 040852Z AUTO 00000KT 7SM CLR 19/17 A3002 RMK AO2 SLP162 T01890172 53002


Station Type Date Time Source
KMLI Decoded METAR 2020/07/04 08:52 UTC NOAA

MOLINE QUAD-CITY AIRPORT, IL, United States (KMLI) 41-27N 90-31W 184M
Jul 04, 2020 - 04:52 AM EDT / 2020.07.04 0852 UTC
Wind: Calm:0
Visibility: 7 mile(s):0
Sky conditions: clear
Temperature: 66.0 F (18.9 C)
Dew Point: 63.0 F (17.2 C)
Relative Humidity: 89%
Pressure (altimeter): 30.02 in. Hg (1016 hPa)
Pressure tendency: 0.01 inches (0.2 hPa) higher than three hours ago
ob: KMLI 040852Z AUTO 00000KT 7SM CLR 19/17 A3002 RMK AO2 SLP162 T01890172 53002
cycle: 9

Station Type Date Time Source
KMLI TAF 2020/07/04 06:33 UTC NOAA

TAF KMLI 040530Z 0406/0506 00000KT P6SM FEW250
FM041700 07005KT P6SM FEW050
FM050100 VRB03KT P6SM SKC

Example: see airport list